createdAt,value
2023-02-06T00:00:01.866Z,3.70
2023-02-06T00:02:37.781Z,3.63
2023-02-06T00:07:43.560Z,3.93
2023-02-06T00:10:16.864Z,4.97
2023-02-06T00:12:51.209Z,4.50
2023-02-06T00:15:24.399Z,3.92
2023-02-06T00:17:57.284Z,4.28
2023-02-06T00:20:30.211Z,5.70
2023-02-06T00:25:36.135Z,3.92
2023-02-06T00:28:10.502Z,4.07
2023-02-06T00:30:46.559Z,3.50
2023-02-06T00:33:21.240Z,4.43
2023-02-06T00:35:54.260Z,3.13
2023-02-06T00:38:27.337Z,4.38
2023-02-06T00:41:00.601Z,4.82
2023-02-06T00:43:34.867Z,3.33
2023-02-06T00:46:07.635Z,5.43
2023-02-06T00:48:40.691Z,4.20
2023-02-06T00:53:46.293Z,4.27
2023-02-06T00:56:19.481Z,2.92
2023-02-06T00:58:54.512Z,3.00
2023-02-06T01:01:27.781Z,3.83
2023-02-06T01:04:01.051Z,3.15
2023-02-06T01:06:34.126Z,4.07
2023-02-06T01:11:39.774Z,3.13
2023-02-06T01:14:15.902Z,3.92
2023-02-06T01:16:49.505Z,3.67
2023-02-06T01:19:23.013Z,4.38
2023-02-06T01:21:55.994Z,3.65
2023-02-06T01:24:28.994Z,4.20
2023-02-06T01:29:36.473Z,4.03
2023-02-06T01:32:09.389Z,3.55
2023-02-06T01:37:14.996Z,3.03
2023-02-06T01:39:47.930Z,2.95
2023-02-06T01:42:21.062Z,3.33
2023-02-06T01:45:28.367Z,3.42
2023-02-06T01:48:04.881Z,3.10
2023-02-06T01:50:40.580Z,4.05
2023-02-06T01:53:18.979Z,3.85
2023-02-06T01:55:53.999Z,3.47
2023-02-06T01:58:31.411Z,3.25
2023-02-06T02:01:07.299Z,4.18
2023-02-06T02:03:45.710Z,3.08
2023-02-06T02:06:23.673Z,3.78
2023-02-06T02:08:58.817Z,2.80
2023-02-06T02:11:34.383Z,2.92
2023-02-06T02:14:10.144Z,3.40
2023-02-06T02:16:53.489Z,3.53
2023-02-06T02:19:55.658Z,2.95
2023-02-06T02:23:02.590Z,2.25
2023-02-06T02:26:03.434Z,2.58
2023-02-06T02:29:23.922Z,2.40
2023-02-06T02:32:19.269Z,3.10
2023-02-06T02:35:06.404Z,3.30
2023-02-06T02:37:47.832Z,2.60
2023-02-06T02:40:29.657Z,2.72
2023-02-06T02:43:12.856Z,2.38
2023-02-06T02:45:52.543Z,2.17
2023-02-06T02:48:31.158Z,2.67
2023-02-06T02:51:05.809Z,3.38
2023-02-06T02:53:38.779Z,2.08
2023-02-06T02:56:17.721Z,2.22
2023-02-06T02:58:54.603Z,2.42
2023-02-06T03:01:32.840Z,2.40
2023-02-06T03:04:13.259Z,2.97
2023-02-06T03:07:03.982Z,2.83
2023-02-06T03:09:47.567Z,2.40
2023-02-06T03:12:25.233Z,2.92
2023-02-06T03:15:02.480Z,2.00
2023-02-06T03:17:39.195Z,2.00
2023-02-06T03:20:19.499Z,2.78
2023-02-06T03:22:56.594Z,2.10
2023-02-06T03:25:37.171Z,2.10
2023-02-06T03:28:18.142Z,3.35
2023-02-06T03:30:57.657Z,2.13
2023-02-06T03:33:36.721Z,2.25
2023-02-06T03:36:15.406Z,2.25
2023-02-06T03:38:52.208Z,2.45
2023-02-06T03:41:30.511Z,1.77
2023-02-06T03:44:07.385Z,1.80
2023-02-06T03:46:42.755Z,2.33
2023-02-06T03:49:17.797Z,2.20
2023-02-06T03:51:54.795Z,2.15
2023-02-06T03:54:31.593Z,1.70
2023-02-06T03:57:07.740Z,1.83
2023-02-06T03:59:40.692Z,3.00
2023-02-06T04:04:47.671Z,1.77
2023-02-06T04:07:25.925Z,1.70
2023-02-06T04:10:00.015Z,1.42
2023-02-06T04:12:33.114Z,1.83
2023-02-06T04:17:53.636Z,2.00
2023-02-06T04:20:32.013Z,1.70
2023-02-06T04:25:38.987Z,1.65
2023-02-06T04:28:12.019Z,2.17
2023-02-06T04:33:20.482Z,1.92
2023-02-06T04:35:53.253Z,1.27
2023-02-06T04:38:26.089Z,1.70
2023-02-06T04:41:04.778Z,1.85
2023-02-06T04:43:37.645Z,2.10
2023-02-06T04:46:10.590Z,2.60
2023-02-06T04:48:43.566Z,1.55
2023-02-06T04:53:49.249Z,2.13
2023-02-06T04:56:25.544Z,1.67
2023-02-06T04:58:58.534Z,1.65
2023-02-06T05:04:04.374Z,1.23
2023-02-06T05:09:11.108Z,1.55
2023-02-06T05:11:48.389Z,1.90
2023-02-06T05:14:21.468Z,1.63
2023-02-06T05:16:54.363Z,1.63
2023-02-06T05:19:27.249Z,1.40
2023-02-06T05:24:32.785Z,2.35
2023-02-06T05:29:39.711Z,2.47
2023-02-06T05:32:12.912Z,2.95
2023-02-06T05:34:46.225Z,2.22
2023-02-06T05:37:19.135Z,1.80
2023-02-06T05:42:26.196Z,2.70
2023-02-06T05:44:59.297Z,1.92
2023-02-06T05:47:35.297Z,2.83
2023-02-06T05:50:08.677Z,1.85
2023-02-06T05:52:42.040Z,3.28
2023-02-06T05:55:17.083Z,4.63
2023-02-06T05:57:51.675Z,2.35
2023-02-06T06:00:27.764Z,2.83
2023-02-06T06:03:00.654Z,3.13
2023-02-06T06:05:34.359Z,2.78
2023-02-06T06:08:07.242Z,2.00
2023-02-06T06:10:40.183Z,3.10
2023-02-06T06:15:50.592Z,3.22
2023-02-06T06:18:23.581Z,3.00
2023-02-06T06:20:56.532Z,2.60
2023-02-06T06:26:02.348Z,3.22
2023-02-06T06:31:12.774Z,2.42
2023-02-06T06:33:46.010Z,2.83
2023-02-06T06:39:23.422Z,2.35
2023-02-06T06:42:02.906Z,3.45
2023-02-06T06:44:44.669Z,2.92
2023-02-06T06:47:17.822Z,2.85
2023-02-06T06:50:12.916Z,2.40
2023-02-06T06:52:56.653Z,2.67
2023-02-06T06:55:45.146Z,2.75
2023-02-06T06:58:23.857Z,2.58
2023-02-06T07:01:01.337Z,2.50
2023-02-06T07:03:34.495Z,2.40
2023-02-06T07:06:07.722Z,3.75
2023-02-06T07:08:42.162Z,2.38
2023-02-06T07:11:16.981Z,3.40
2023-02-06T07:13:49.935Z,2.03
2023-02-06T07:16:24.813Z,2.20
2023-02-06T07:18:58.030Z,2.70
2023-02-06T07:21:31.340Z,2.80
2023-02-06T07:24:05.428Z,2.92
2023-02-06T07:26:38.488Z,2.90
2023-02-06T07:29:11.451Z,2.50
2023-02-06T07:31:48.073Z,2.38
2023-02-06T07:34:21.234Z,2.20
2023-02-06T07:36:54.098Z,2.25
2023-02-06T07:39:27.074Z,2.50
2023-02-06T07:44:38.996Z,2.25
2023-02-06T07:49:46.016Z,2.08
2023-02-06T07:54:53.135Z,2.47
2023-02-06T07:59:59.085Z,2.10
2023-02-06T08:02:33.218Z,2.28
2023-02-06T08:05:06.632Z,2.38
2023-02-06T08:07:39.577Z,2.33
2023-02-06T08:12:45.987Z,3.85
2023-02-06T08:15:19.678Z,2.38
2023-02-06T08:17:54.369Z,3.15
2023-02-06T08:20:29.218Z,3.38
2023-02-06T08:23:02.328Z,2.65
2023-02-06T08:25:37.990Z,2.45
2023-02-06T08:28:15.041Z,1.83
2023-02-06T08:30:50.626Z,2.10
2023-02-06T08:33:28.442Z,3.05
2023-02-06T08:36:03.090Z,2.97
2023-02-06T08:38:39.933Z,3.47
2023-02-06T08:41:24.011Z,2.08
2023-02-06T08:46:33.528Z,2.47
2023-02-06T08:49:12.413Z,3.13
2023-02-06T08:51:45.939Z,2.45
2023-02-06T08:54:20.661Z,3.33
2023-02-06T08:56:58.555Z,2.70
2023-02-06T08:59:31.572Z,2.83
2023-02-06T09:04:42.731Z,2.17
2023-02-06T09:07:17.343Z,2.60
2023-02-06T09:09:50.546Z,2.97
2023-02-06T09:14:56.353Z,2.83
2023-02-06T09:17:31.683Z,3.47
2023-02-06T09:20:06.279Z,2.65
2023-02-06T09:22:41.241Z,3.00
2023-02-06T09:25:14.008Z,3.00
2023-02-06T09:27:47.476Z,2.70
2023-02-06T09:30:20.577Z,2.90
2023-02-06T09:35:27.935Z,2.47
2023-02-06T09:38:01.151Z,2.85
2023-02-06T09:40:36.321Z,4.22
2023-02-06T09:43:13.129Z,3.05
2023-02-06T09:45:46.308Z,3.53
2023-02-06T09:51:08.275Z,3.05
2023-02-06T09:53:48.636Z,3.75
2023-02-06T09:56:30.960Z,3.60
2023-02-06T09:59:11.319Z,3.10
2023-02-06T10:01:48.800Z,3.58
2023-02-06T10:04:36.083Z,3.83
2023-02-06T10:07:22.404Z,3.33
2023-02-06T10:09:59.656Z,4.22
2023-02-06T10:12:38.819Z,3.58
2023-02-06T10:15:15.860Z,3.33
2023-02-06T10:17:54.554Z,3.78
2023-02-06T10:20:34.704Z,2.97
2023-02-06T10:23:16.730Z,3.65
2023-02-06T10:25:58.860Z,4.32
2023-02-06T10:28:35.337Z,3.70
2023-02-06T10:31:24.551Z,3.88
2023-02-06T10:34:29.659Z,3.38
2023-02-06T10:37:19.322Z,4.28
2023-02-06T10:40:12.066Z,3.38
2023-02-06T10:42:55.934Z,3.35
2023-02-06T10:45:39.961Z,4.10
2023-02-06T10:48:22.480Z,4.15
2023-02-06T10:51:01.086Z,2.75
2023-02-06T10:53:37.231Z,3.45
2023-02-06T10:56:14.289Z,4.30
2023-02-06T10:58:51.219Z,4.90
2023-02-06T11:01:27.217Z,3.28
2023-02-06T11:04:08.649Z,4.38
2023-02-06T11:06:46.871Z,2.80
2023-02-06T11:09:20.042Z,5.60
2023-02-06T11:11:58.128Z,4.05
2023-02-06T11:14:35.726Z,2.72
2023-02-06T11:17:08.772Z,2.97
2023-02-06T11:19:44.568Z,3.95
2023-02-06T11:22:27.119Z,3.38
2023-02-06T11:25:03.296Z,3.20
2023-02-06T11:27:37.780Z,4.13
2023-02-06T11:30:26.280Z,3.88
2023-02-06T11:33:04.915Z,3.63
2023-02-06T11:35:41.266Z,4.53
2023-02-06T11:38:17.084Z,4.47
2023-02-06T11:40:59.296Z,4.57
2023-02-06T11:43:48.570Z,5.57
2023-02-06T11:46:25.798Z,5.47
2023-02-06T11:49:23.012Z,3.67
2023-02-06T11:51:59.655Z,3.15
2023-02-06T11:54:35.181Z,3.85
2023-02-06T11:57:20.805Z,5.13
2023-02-06T11:59:57.925Z,3.42
2023-02-06T12:02:33.409Z,2.97
2023-02-06T12:05:12.972Z,4.50
2023-02-06T12:07:53.659Z,4.40
2023-02-06T12:10:42.237Z,3.85
2023-02-06T12:13:21.946Z,4.97
2023-02-06T12:16:02.282Z,4.13
2023-02-06T12:18:38.620Z,4.00
2023-02-06T12:21:15.208Z,3.70
2023-02-06T12:23:55.701Z,3.88
2023-02-06T12:26:32.173Z,4.00
2023-02-06T12:29:11.121Z,4.85
2023-02-06T12:31:54.631Z,3.53
2023-02-06T12:34:42.587Z,3.63
2023-02-06T12:37:21.476Z,3.58
2023-02-06T12:39:57.086Z,3.67
2023-02-06T12:42:40.536Z,4.68
2023-02-06T12:45:24.891Z,4.03
2023-02-06T12:48:05.933Z,3.90
2023-02-06T12:50:48.909Z,4.13
2023-02-06T12:53:30.013Z,3.65
2023-02-06T12:56:06.801Z,3.53
2023-02-06T12:58:51.761Z,4.13
2023-02-06T13:01:59.314Z,4.03
2023-02-06T13:04:37.933Z,4.15
2023-02-06T13:07:14.627Z,3.90
2023-02-06T13:09:51.228Z,3.85
2023-02-06T13:12:26.785Z,5.13
2023-02-06T13:15:03.341Z,4.60
2023-02-06T13:17:41.465Z,3.63
2023-02-06T13:20:18.132Z,3.85
2023-02-06T13:22:53.948Z,4.25
2023-02-06T13:25:54.263Z,4.40
2023-02-06T13:29:09.763Z,4.20
2023-02-06T13:31:42.774Z,3.80
2023-02-06T13:34:18.287Z,3.80
2023-02-06T13:36:55.840Z,4.55
2023-02-06T13:39:32.528Z,3.63
2023-02-06T13:42:40.255Z,4.53
2023-02-06T13:45:19.980Z,4.30
2023-02-06T13:48:34.112Z,3.72
2023-02-06T13:51:38.793Z,4.53
2023-02-06T13:54:51.440Z,4.20
2023-02-06T13:57:39.056Z,3.38
2023-02-06T14:00:16.646Z,2.90
2023-02-06T14:02:52.746Z,3.67
2023-02-06T14:05:32.952Z,4.45
2023-02-06T14:08:19.520Z,4.35
2023-02-06T14:11:13.825Z,4.50
2023-02-06T14:14:06.831Z,3.63
2023-02-06T14:16:50.511Z,3.03
2023-02-06T14:19:32.444Z,3.45
2023-02-06T14:22:18.003Z,4.38
2023-02-06T14:25:09.844Z,3.83
2023-02-06T14:27:59.309Z,4.55
2023-02-06T14:30:42.740Z,3.42
2023-02-06T14:33:44.509Z,4.38
2023-02-06T14:36:30.878Z,4.38
2023-02-06T14:39:32.262Z,3.63
2023-02-06T14:42:13.200Z,3.83
2023-02-06T14:44:53.981Z,3.38
2023-02-06T14:47:30.273Z,4.10
2023-02-06T14:50:03.333Z,3.00
2023-02-06T14:52:37.121Z,3.03
2023-02-06T14:55:31.886Z,4.15
2023-02-06T14:58:06.952Z,3.63
2023-02-06T15:00:41.176Z,3.25
2023-02-06T15:03:17.524Z,3.70
2023-02-06T15:06:05.032Z,3.22
2023-02-06T15:08:38.358Z,4.20
2023-02-06T15:11:21.216Z,3.53
2023-02-06T15:13:59.757Z,3.30
2023-02-06T15:16:46.279Z,3.58
2023-02-06T15:19:21.054Z,2.88
2023-02-06T15:21:59.452Z,2.92
2023-02-06T15:24:46.097Z,3.47
2023-02-06T15:27:27.907Z,3.95
2023-02-06T15:30:02.750Z,2.78
2023-02-06T15:32:41.084Z,2.83
2023-02-06T15:35:21.739Z,3.88
2023-02-06T15:37:56.731Z,4.88
2023-02-06T15:40:33.792Z,3.88
2023-02-06T15:43:16.541Z,4.05
2023-02-06T15:45:51.622Z,4.07
2023-02-06T15:48:31.821Z,3.63
2023-02-06T15:51:19.726Z,4.78
2023-02-06T15:54:05.700Z,4.03
2023-02-06T15:56:42.074Z,3.47
2023-02-06T15:59:19.372Z,3.45
2023-02-06T16:01:56.312Z,4.18
2023-02-06T16:04:33.774Z,3.42
2023-02-06T16:07:13.747Z,3.65
2023-02-06T16:09:51.735Z,3.60
2023-02-06T16:12:24.873Z,4.32
2023-02-06T16:14:59.693Z,4.53
2023-02-06T16:17:38.304Z,3.90
2023-02-06T16:20:35.662Z,5.50
2023-02-06T16:23:24.116Z,4.30
2023-02-06T16:26:09.749Z,4.05
2023-02-06T16:28:59.146Z,4.90
2023-02-06T16:31:39.963Z,4.75
2023-02-06T16:34:23.129Z,3.67
2023-02-06T16:36:57.682Z,4.03
2023-02-06T16:39:38.182Z,3.60
2023-02-06T16:42:16.603Z,4.80
2023-02-06T16:44:52.858Z,5.72
2023-02-06T16:47:26.057Z,4.47
2023-02-06T16:49:59.128Z,5.13
2023-02-06T16:52:40.269Z,4.32
2023-02-06T16:55:18.144Z,3.47
2023-02-06T16:58:00.117Z,3.85
2023-02-06T17:00:39.093Z,3.08
2023-02-06T17:03:16.375Z,3.65
2023-02-06T17:06:04.692Z,5.40
2023-02-06T17:08:42.926Z,3.10
2023-02-06T17:11:19.154Z,4.13
2023-02-06T17:13:52.230Z,3.88
2023-02-06T17:16:33.721Z,4.13
2023-02-06T17:19:21.340Z,4.18
2023-02-06T17:21:54.326Z,3.33
2023-02-06T17:24:29.475Z,3.35
2023-02-06T17:27:04.864Z,3.83
2023-02-06T17:29:48.599Z,3.85
2023-02-06T17:32:23.713Z,3.95
2023-02-06T17:34:58.242Z,3.47
2023-02-06T17:37:31.412Z,4.70
2023-02-06T17:40:06.800Z,3.33
2023-02-06T17:42:39.974Z,3.42
2023-02-06T17:45:13.243Z,4.13
2023-02-06T17:47:46.412Z,2.80
2023-02-06T17:50:22.615Z,3.65
2023-02-06T17:52:56.282Z,3.53
2023-02-06T17:55:33.870Z,3.20
2023-02-06T17:58:12.961Z,2.88
2023-02-06T18:00:49.456Z,2.72
2023-02-06T18:03:26.218Z,2.63
2023-02-06T18:06:00.436Z,3.45
2023-02-06T18:08:33.855Z,3.08
2023-02-06T18:11:21.192Z,2.92
2023-02-06T18:13:58.514Z,2.90
2023-02-06T18:16:43.963Z,3.33
2023-02-06T18:19:27.220Z,2.72
2023-02-06T18:22:02.533Z,2.85
2023-02-06T18:24:42.380Z,2.80
2023-02-06T18:27:27.588Z,3.50
2023-02-06T18:30:04.713Z,2.35
2023-02-06T18:32:41.131Z,2.97
2023-02-06T18:39:05.587Z,3.40
2023-02-06T18:41:58.907Z,2.45
2023-02-06T18:44:41.710Z,2.63
2023-02-06T18:47:16.723Z,3.10
2023-02-06T18:49:53.271Z,3.05
2023-02-06T18:52:26.444Z,3.38
2023-02-06T18:54:59.691Z,2.72
2023-02-06T18:57:32.899Z,3.10
2023-02-06T19:00:13.865Z,3.33
2023-02-06T19:02:47.702Z,3.00
2023-02-06T19:05:21.651Z,2.92
2023-02-06T19:07:55.048Z,3.70
2023-02-06T19:10:41.820Z,2.60
2023-02-06T19:13:17.416Z,3.15
2023-02-06T19:15:51.928Z,2.28
2023-02-06T19:18:37.603Z,2.72
2023-02-06T19:21:23.326Z,2.85
2023-02-06T19:23:59.288Z,2.65
2023-02-06T19:26:36.215Z,3.00
2023-02-06T19:29:34.455Z,3.53
2023-02-06T19:32:13.637Z,2.50
2023-02-06T19:34:49.789Z,2.75
2023-02-06T19:37:25.101Z,3.20
2023-02-06T19:40:03.500Z,2.40
2023-02-06T19:42:39.335Z,2.95
2023-02-06T19:45:12.801Z,3.10
2023-02-06T19:47:48.306Z,3.45
2023-02-06T19:50:23.466Z,2.72
2023-02-06T19:52:56.400Z,3.67
2023-02-06T19:55:31.260Z,3.35
2023-02-06T19:58:10.323Z,3.17
2023-02-06T20:00:56.856Z,3.05
2023-02-06T20:03:40.252Z,2.70
2023-02-06T20:06:15.284Z,2.92
2023-02-06T20:08:51.208Z,2.95
2023-02-06T20:11:25.236Z,3.67
2023-02-06T20:14:03.496Z,2.92
2023-02-06T20:16:42.357Z,3.75
2023-02-06T20:19:22.098Z,3.30
2023-02-06T20:21:59.955Z,4.22
2023-02-06T20:24:37.256Z,4.70
2023-02-06T20:27:14.264Z,4.88
2023-02-06T20:29:57.284Z,4.53
2023-02-06T20:32:42.877Z,4.68
2023-02-06T20:35:23.869Z,3.38
2023-02-06T20:38:05.998Z,4.47
2023-02-06T20:40:43.807Z,3.72
2023-02-06T20:43:22.410Z,4.50
2023-02-06T20:45:59.968Z,5.47
2023-02-06T20:48:40.012Z,4.82
2023-02-06T20:51:24.625Z,4.60
2023-02-06T20:54:07.726Z,5.18
2023-02-06T20:56:42.492Z,4.75
2023-02-06T20:59:18.398Z,4.63
2023-02-06T21:01:51.639Z,4.38
2023-02-06T21:04:24.589Z,4.65
2023-02-06T21:06:59.334Z,4.68
2023-02-06T21:09:32.569Z,4.15
2023-02-06T21:12:06.075Z,4.97
2023-02-06T21:14:39.324Z,4.25
2023-02-06T21:17:12.683Z,4.10
2023-02-06T21:19:48.246Z,4.88
2023-02-06T21:22:25.335Z,4.75
2023-02-06T21:24:58.416Z,4.30
2023-02-06T21:27:31.787Z,4.13
2023-02-06T21:30:05.819Z,4.30
2023-02-06T21:32:38.686Z,4.25
2023-02-06T21:35:11.937Z,4.45
2023-02-06T21:37:46.411Z,4.13
2023-02-06T21:40:19.906Z,4.35
2023-02-06T21:42:53.227Z,5.07
2023-02-06T21:45:28.612Z,4.22
2023-02-06T21:50:34.920Z,5.07
2023-02-06T21:53:10.231Z,4.90
2023-02-06T21:55:44.204Z,4.45
2023-02-06T21:58:17.132Z,4.50
2023-02-06T22:03:24.250Z,4.28
2023-02-06T22:06:07.512Z,4.93
2023-02-06T22:11:16.688Z,4.57
2023-02-06T22:13:50.103Z,4.90
2023-02-06T22:16:27.747Z,5.15
2023-02-06T22:19:01.372Z,5.32
2023-02-06T22:21:35.655Z,4.55
2023-02-06T22:24:12.481Z,5.22
2023-02-06T22:26:45.973Z,4.20
2023-02-06T22:29:19.346Z,4.57
2023-02-06T22:31:52.300Z,4.18
2023-02-06T22:36:58.046Z,4.95
2023-02-06T22:39:32.317Z,5.22
2023-02-06T22:42:05.435Z,6.00
2023-02-06T22:44:38.296Z,5.07
2023-02-06T22:47:11.255Z,4.30
2023-02-06T22:49:44.329Z,4.47
2023-02-06T22:55:09.655Z,4.57
2023-02-06T22:57:42.500Z,4.97
2023-02-06T23:00:18.417Z,4.95
2023-02-06T23:02:51.365Z,4.88
2023-02-06T23:05:25.048Z,4.72
2023-02-06T23:07:57.972Z,4.97
2023-02-06T23:10:32.050Z,4.65
2023-02-06T23:13:04.999Z,4.68
2023-02-06T23:18:14.093Z,4.47
2023-02-06T23:20:46.807Z,5.07
2023-02-06T23:23:19.810Z,4.43
2023-02-06T23:25:54.593Z,5.32
2023-02-06T23:28:34.474Z,4.38
2023-02-06T23:31:11.811Z,5.10
2023-02-06T23:33:47.956Z,4.10
2023-02-06T23:36:27.128Z,4.43
2023-02-06T23:39:16.038Z,4.43
2023-02-06T23:41:50.930Z,4.97
2023-02-06T23:45:07.958Z,4.20
2023-02-06T23:47:40.897Z,5.05
2023-02-06T23:50:26.633Z,4.68
2023-02-06T23:52:59.591Z,5.30
2023-02-06T23:58:07.349Z,5.25
